Time;durP1;ratioP1;P1;durP2;ratioP2;P2;SDS_P1;SDS_P2;PMS_P1;PMS_P2;Temp;Humidity;BMP_temperature;BMP_pressure;BME280_temperature;BME280_humidity;BME280_pressure;Samples;Min_cycle;Max_cycle;Signal;HPM_P1;HPM_P2
2023/04/02 00:00:09;;;;;;;;;;;9.20;99.90;9.60;99183.00;;;;339290;28;84257;-89
2023/04/02 00:00:22;;;;;;;;;;;9.20;99.90;9.60;99186.00;;;;337693;28;82626;-89
2023/04/02 00:00:35;;;;;;;;;;;9.20;99.90;9.60;99178.00;;;;340646;28;84150;-90
2023/04/02 00:01:04;;;;;;;;;;;9.20;99.90;9.50;99181.00;;;;339357;28;83336;-90
2023/04/02 00:01:27;;;;;;;;;;;9.20;99.90;9.60;99177.00;;;;335408;29;85366;-90
2023/04/02 00:01:39;;;;;;;;;;;9.20;99.90;9.70;99178.00;;;;338047;28;82536;-90
2023/04/02 00:01:51;;;;;;;;;;;9.20;99.90;9.80;99188.00;;;;339256;28;85087;-89
2023/04/02 00:02:55;;;;;;;;;;;9.20;99.90;9.70;99186.00;;;;338130;28;83221;-90
2023/04/02 00:03:10;;;;;;;;;;;9.20;99.90;9.70;99178.00;;;;337567;28;86199;-90
2023/04/02 00:03:22;;;;;;;;;;;9.20;99.90;9.70;99178.00;;;;338084;28;83583;-89
2023/04/02 00:03:40;;;;;;;;;;;9.20;99.90;9.70;99181.00;;;;340336;28;86722;-90
2023/04/02 00:03:58;;;;;;;;;;;9.20;99.90;9.70;99183.00;;;;339272;28;83758;-90
2023/04/02 00:04:22;;;;;;;;;;;9.20;99.90;9.60;99179.00;;;;338986;28;84390;-90
2023/04/02 00:04:36;;;;;;;;;;;9.20;99.90;9.60;99177.00;;;;338027;28;83465;-90
2023/04/02 00:05:19;;;;;;;;;;;9.20;99.90;9.70;99181.00;;;;337900;28;84237;-90
2023/04/02 00:05:57;;;;;;;;;;;9.20;99.90;9.80;99179.00;;;;339567;28;82419;-89
2023/04/02 00:06:24;;;;;;;;;;;9.20;99.90;9.80;99188.00;;;;337582;28;85286;-90
2023/04/02 00:06:43;;;;;;;;;;;9.20;99.90;9.70;99186.00;;;;339420;28;83317;-90
2023/04/02 00:07:29;;;;;;;;;;;9.30;99.90;9.60;99185.00;;;;337988;28;84224;-90
2023/04/02 00:07:43;;;;;;;;;;;9.20;99.90;9.60;99177.00;;;;337382;28;82769;-90
2023/04/02 00:07:57;;;;;;;;;;;9.20;99.90;9.60;99180.00;;;;339341;28;84071;-89
2023/04/02 00:08:20;;;;;;;;;;;9.20;99.90;9.60;99183.00;;;;340568;28;83560;-90
2023/04/02 00:08:39;;;;;;;;;;;9.20;99.90;9.60;99177.00;;;;337927;28;84273;-90
2023/04/02 00:08:55;;;;;;;;;;;9.20;99.90;9.60;99180.00;;;;340621;28;82757;-89
2023/04/02 00:09:12;;;;;;;;;;;9.20;99.90;9.50;99188.00;;;;340556;28;84216;-89
2023/04/02 00:09:32;;;;;;;;;;;9.20;99.90;9.50;99184.00;;;;339448;28;82489;-89
2023/04/02 00:09:43;;;;;;;;;;;9.20;99.90;9.50;99180.00;;;;337616;28;85163;-90
2023/04/02 00:09:56;;;;;;;;;;;9.20;99.90;9.60;99186.00;;;;338054;28;82359;-90
2023/04/02 00:10:28;;;;;;;;;;;9.20;99.90;9.60;99189.00;;;;336391;28;83207;-90
2023/04/02 00:11:11;;;;;;;;;;;9.20;99.90;9.60;99186.00;;;;337895;28;83437;-89
2023/04/02 00:11:34;;;;;;;;;;;9.20;99.90;9.60;99185.00;;;;337992;28;83080;-90
2023/04/02 00:11:48;;;;;;;;;;;9.20;99.90;9.60;99183.00;;;;340298;28;83610;-90
2023/04/02 00:12:14;;;;;;;;;;;9.20;99.90;9.50;99195.00;;;;339266;28;85377;-90
2023/04/02 00:12:25;;;;;;;;;;;9.20;99.90;9.60;99186.00;;;;338041;28;82576;-90
2023/04/02 00:12:37;;;;;;;;;;;9.20;99.90;9.60;99178.00;;;;339127;28;85460;-89
2023/04/02 00:13:22;;;;;;;;;;;9.10;99.90;9.60;99193.00;;;;339137;28;83457;-90
2023/04/02 00:13:43;;;;;;;;;;;9.20;99.90;9.50;99195.00;;;;339245;28;84338;-89
2023/04/02 00:13:59;;;;;;;;;;;9.20;99.90;9.50;99191.00;;;;338364;28;83667;-90
2023/04/02 00:14:20;;;;;;;;;;;9.10;99.90;9.40;99194.00;;;;337600;28;87452;-89
2023/04/02 00:14:33;;;;;;;;;;;9.10;99.90;9.50;99195.00;;;;339160;28;82447;-89
2023/04/02 00:14:46;;;;;;;;;;;9.10;99.90;9.40;99191.00;;;;339184;28;84136;-90
2023/04/02 00:14:58;;;;;;;;;;;9.10;99.90;9.40;99184.00;;;;339465;28;83412;-90
2023/04/02 00:15:10;;;;;;;;;;;9.10;99.90;9.40;99190.00;;;;336115;28;84311;-90
2023/04/02 00:15:22;;;;;;;;;;;9.10;99.90;9.40;99183.00;;;;337862;28;83455;-90
2023/04/02 00:15:34;;;;;;;;;;;9.10;99.90;9.40;99191.00;;;;336299;28;84450;-90
2023/04/02 00:15:48;;;;;;;;;;;9.10;99.90;9.40;99191.00;;;;336603;28;83444;-90
2023/04/02 00:16:02;;;;;;;;;;;9.10;99.90;9.40;99185.00;;;;337990;28;83846;-89
2023/04/02 00:16:17;;;;;;;;;;;9.10;99.90;9.40;99195.00;;;;337825;28;82589;-89
2023/04/02 00:16:29;;;;;;;;;;;9.10;99.90;9.40;99190.00;;;;340174;28;85256;-90
2023/04/02 00:16:41;;;;;;;;;;;9.00;99.90;9.40;99191.00;;;;336505;28;82575;-89
2023/04/02 00:16:54;;;;;;;;;;;9.00;99.90;9.40;99192.00;;;;336361;28;86296;-89
2023/04/02 00:17:06;;;;;;;;;;;9.00;99.90;9.40;99188.00;;;;338053;28;83554;-90
2023/04/02 00:17:19;;;;;;;;;;;9.00;99.90;9.40;99187.00;;;;339161;28;82761;-89
2023/04/02 00:17:31;;;;;;;;;;;9.00;99.90;9.40;99192.00;;;;339237;28;82596;-89
2023/04/02 00:17:43;;;;;;;;;;;9.00;99.90;9.40;99189.00;;;;340324;28;86097;-90
2023/04/02 00:17:56;;;;;;;;;;;9.00;99.90;9.40;99192.00;;;;339203;28;82368;-90
2023/04/02 00:18:18;;;;;;;;;;;9.00;99.90;9.40;99186.00;;;;339093;28;86621;-90
2023/04/02 00:18:30;;;;;;;;;;;9.00;99.90;9.30;99192.00;;;;339410;28;82513;-91
2023/04/02 00:18:45;;;;;;;;;;;9.00;99.90;9.40;99189.00;;;;336652;28;85191;-90
2023/04/02 00:19:00;;;;;;;;;;;9.00;99.90;9.60;99190.00;;;;337983;28;82610;-89
2023/04/02 00:19:15;;;;;;;;;;;9.00;99.90;9.50;99188.00;;;;337869;28;85415;-90
2023/04/02 00:19:32;;;;;;;;;;;9.00;99.90;9.50;99193.00;;;;341834;28;83516;-90
2023/04/02 00:20:09;;;;;;;;;;;9.00;99.90;9.60;99180.00;;;;341640;28;85661;-90
2023/04/02 00:20:21;;;;;;;;;;;9.00;99.90;9.50;99193.00;;;;340131;28;83312;-90
2023/04/02 00:20:35;;;;;;;;;;;9.10;99.90;9.50;99189.00;;;;339117;28;84281;-90
2023/04/02 00:20:52;;;;;;;;;;;9.10;99.90;9.50;99188.00;;;;337958;28;83286;-90
2023/04/02 00:21:21;;;;;;;;;;;9.00;99.90;9.50;99188.00;;;;339034;28;85647;-91
2023/04/02 00:21:34;;;;;;;;;;;9.10;99.90;9.50;99191.00;;;;340542;28;84195;-90
2023/04/02 00:21:45;;;;;;;;;;;9.10;99.90;9.50;99184.00;;;;337878;28;83887;-90
2023/04/02 00:21:57;;;;;;;;;;;9.10;99.90;9.60;99177.00;;;;337857;28;82615;-90
2023/04/02 00:22:15;;;;;;;;;;;9.00;99.90;9.60;99186.00;;;;336500;28;85426;-90
2023/04/02 00:22:28;;;;;;;;;;;9.10;99.90;9.50;99198.00;;;;339416;28;82479;-90
2023/04/02 00:22:42;;;;;;;;;;;9.10;99.90;9.40;99190.00;;;;340584;28;85363;-90
2023/04/02 00:22:55;;;;;;;;;;;9.00;99.90;9.40;99190.00;;;;339444;28;83158;-90
2023/04/02 00:23:10;;;;;;;;;;;9.10;99.90;9.50;99186.00;;;;340273;28;86460;-89
2023/04/02 00:23:22;;;;;;;;;;;9.10;99.90;9.50;99192.00;;;;340659;28;83141;-90
2023/04/02 00:23:40;;;;;;;;;;;9.10;99.90;9.40;99185.00;;;;340588;28;84281;-89
2023/04/02 00:23:53;;;;;;;;;;;9.10;99.90;9.50;99188.00;;;;339371;28;83584;-89
2023/04/02 00:24:15;;;;;;;;;;;9.10;99.90;9.40;99184.00;;;;339094;28;84739;-89
2023/04/02 00:24:27;;;;;;;;;;;9.10;99.90;9.40;99185.00;;;;336484;28;82548;-89
2023/04/02 00:24:39;;;;;;;;;;;9.00;99.90;9.40;99185.00;;;;338766;28;86024;-90
2023/04/02 00:24:52;;;;;;;;;;;9.00;99.90;9.40;99194.00;;;;339362;28;82366;-90
2023/04/02 00:25:11;;;;;;;;;;;9.00;99.90;9.30;99193.00;;;;337780;28;84046;-89
2023/04/02 00:25:25;;;;;;;;;;;9.00;99.90;9.30;99195.00;;;;340494;28;83612;-90
2023/04/02 00:25:41;;;;;;;;;;;9.00;99.90;9.30;99188.00;;;;340331;28;85761;-90
2023/04/02 00:25:53;;;;;;;;;;;9.00;99.90;9.30;99188.00;;;;340463;28;82542;-90
2023/04/02 00:26:22;;;;;;;;;;;9.00;99.90;9.30;99190.00;;;;337756;28;85509;-89
2023/04/02 00:26:41;;;;;;;;;;;9.00;99.90;9.40;99196.00;;;;338041;28;83354;-90
2023/04/02 00:26:53;;;;;;;;;;;9.00;99.90;9.40;99192.00;;;;338012;28;84980;-90
2023/04/02 00:27:05;;;;;;;;;;;9.00;99.90;9.40;99190.00;;;;339223;28;83531;-89
2023/04/02 00:27:17;;;;;;;;;;;9.00;99.90;9.40;99197.00;;;;340250;28;86763;-89
2023/04/02 00:27:30;;;;;;;;;;;9.00;99.90;9.40;99193.00;;;;339288;28;82632;-90
2023/04/02 00:27:42;;;;;;;;;;;9.00;99.90;9.40;99183.00;;;;337597;28;85327;-90
2023/04/02 00:27:54;;;;;;;;;;;9.00;99.90;9.40;99186.00;;;;339278;28;83428;-90
2023/04/02 00:28:11;;;;;;;;;;;9.00;99.90;9.30;99187.00;;;;340407;28;86433;-89
2023/04/02 00:28:23;;;;;;;;;;;9.00;99.90;9.30;99188.00;;;;339033;28;83435;-89
2023/04/02 00:28:35;;;;;;;;;;;9.00;99.90;9.30;99190.00;;;;339286;28;83949;-90
2023/04/02 00:28:47;;;;;;;;;;;9.00;99.90;9.40;99187.00;;;;339038;28;83551;-90
2023/04/02 00:28:59;;;;;;;;;;;9.00;99.90;9.40;99185.00;;;;336588;28;84853;-89
2023/04/02 00:29:11;;;;;;;;;;;9.00;99.90;9.40;99187.00;;;;336646;28;83516;-89
2023/04/02 00:29:23;;;;;;;;;;;9.00;99.90;9.40;99198.00;;;;336527;28;84876;-90
2023/04/02 00:29:35;;;;;;;;;;;9.00;99.90;9.40;99194.00;;;;338867;28;82595;-89
2023/04/02 00:29:49;;;;;;;;;;;9.00;99.90;9.30;99192.00;;;;337868;28;85332;-90
2023/04/02 00:30:02;;;;;;;;;;;9.00;99.90;9.30;99191.00;;;;336734;28;83316;-90
2023/04/02 00:30:14;;;;;;;;;;;9.00;99.90;9.30;99188.00;;;;339064;28;85243;-90
2023/04/02 00:30:26;;;;;;;;;;;9.00;99.90;9.40;99186.00;;;;340634;28;83715;-91
2023/04/02 00:30:49;;;;;;;;;;;9.00;99.90;9.30;99201.00;;;;337880;28;84401;-89
2023/04/02 00:31:01;;;;;;;;;;;9.00;99.90;9.30;99190.00;;;;337965;28;82573;-89
2023/04/02 00:31:13;;;;;;;;;;;9.00;99.90;9.30;99194.00;;;;338101;28;83030;-89
2023/04/02 00:31:25;;;;;;;;;;;8.90;99.90;9.30;99190.00;;;;339384;28;83356;-90
2023/04/02 00:31:42;;;;;;;;;;;8.90;99.90;9.30;99195.00;;;;336596;28;84083;-90
2023/04/02 00:31:54;;;;;;;;;;;8.90;99.90;9.40;99185.00;;;;337813;28;83803;-89
2023/04/02 00:32:08;;;;;;;;;;;8.90;99.90;9.30;99186.00;;;;338953;28;84168;-90
2023/04/02 00:32:28;;;;;;;;;;;8.90;99.90;9.40;99186.00;;;;338871;28;83575;-90
2023/04/02 00:32:40;;;;;;;;;;;8.90;99.90;9.40;99195.00;;;;339353;28;83619;-90
2023/04/02 00:32:51;;;;;;;;;;;8.90;99.90;9.40;99195.00;;;;338057;28;83328;-90
2023/04/02 00:33:03;;;;;;;;;;;8.90;99.90;9.40;99190.00;;;;337811;28;86694;-90
2023/04/02 00:33:17;;;;;;;;;;;8.90;99.90;9.40;99192.00;;;;339047;28;83573;-90
2023/04/02 00:33:29;;;;;;;;;;;8.90;99.90;9.40;99188.00;;;;336187;28;83305;-90
2023/04/02 00:33:41;;;;;;;;;;;8.90;99.90;9.30;99187.00;;;;337928;28;83379;-90
2023/04/02 00:33:53;;;;;;;;;;;8.90;99.90;9.50;99189.00;;;;337916;28;85479;-90
2023/04/02 00:34:06;;;;;;;;;;;8.90;99.90;9.40;99186.00;;;;336705;28;82673;-90
2023/04/02 00:34:21;;;;;;;;;;;9.00;99.90;9.30;99195.00;;;;336581;28;85621;-89
2023/04/02 00:34:35;;;;;;;;;;;8.90;99.90;9.30;99187.00;;;;339361;28;83534;-90
2023/04/02 00:34:47;;;;;;;;;;;8.90;99.90;9.30;99187.00;;;;337687;28;86631;-90
2023/04/02 00:34:59;;;;;;;;;;;8.90;99.90;9.30;99180.00;;;;339100;28;83546;-89
2023/04/02 00:35:17;;;;;;;;;;;8.90;99.90;9.30;99188.00;;;;339143;28;84227;-90
2023/04/02 00:35:28;;;;;;;;;;;8.90;99.90;9.40;99183.00;;;;338089;28;83289;-90
2023/04/02 00:35:40;;;;;;;;;;;8.90;99.90;9.40;99187.00;;;;340132;28;86019;-90
2023/04/02 00:35:53;;;;;;;;;;;8.90;99.90;9.40;99189.00;;;;336782;28;82444;-90
2023/04/02 00:36:06;;;;;;;;;;;8.90;99.90;9.40;99190.00;;;;336523;28;84709;-90
2023/04/02 00:36:19;;;;;;;;;;;8.90;99.90;9.40;99184.00;;;;338031;28;83121;-88
2023/04/02 00:36:34;;;;;;;;;;;8.90;99.90;9.40;99194.00;;;;336576;28;85569;-90
2023/04/02 00:36:46;;;;;;;;;;;8.90;99.90;9.40;99190.00;;;;338081;28;83580;-90
2023/04/02 00:36:58;;;;;;;;;;;8.90;99.90;9.40;99183.00;;;;339203;28;85471;-90
2023/04/02 00:37:26;;;;;;;;;;;8.90;99.90;9.50;99196.00;;;;339299;28;83433;-90
2023/04/02 00:37:41;;;;;;;;;;;9.00;99.90;9.40;99186.00;;;;339100;28;85458;-89
2023/04/02 00:37:52;;;;;;;;;;;9.00;99.90;9.30;99187.00;;;;339345;28;83655;-90
2023/04/02 00:38:04;;;;;;;;;;;8.90;99.90;9.30;99184.00;;;;337819;28;83846;-90
2023/04/02 00:38:22;;;;;;;;;;;8.90;99.90;9.30;99188.00;;;;338958;28;83652;-90
2023/04/02 00:38:33;;;;;;;;;;;8.90;99.90;9.30;99190.00;;;;338954;28;86365;-90
2023/04/02 00:38:46;;;;;;;;;;;8.90;99.90;9.30;99193.00;;;;337972;28;82434;-90
2023/04/02 00:39:01;;;;;;;;;;;8.90;99.90;9.30;99198.00;;;;337908;28;85659;-89
2023/04/02 00:39:20;;;;;;;;;;;8.90;99.90;9.40;99199.00;;;;340293;28;83587;-90
2023/04/02 00:39:37;;;;;;;;;;;8.90;99.90;9.40;99187.00;;;;339248;28;86757;-90
2023/04/02 00:39:51;;;;;;;;;;;8.90;99.90;9.40;99192.00;;;;339317;28;83573;-90
2023/04/02 00:40:19;;;;;;;;;;;8.90;99.90;9.30;99188.00;;;;340369;28;86694;-90
2023/04/02 00:40:30;;;;;;;;;;;9.00;99.90;9.30;99196.00;;;;340559;28;83593;-90
2023/04/02 00:40:42;;;;;;;;;;;8.90;99.90;9.30;99199.00;;;;343017;28;87019;-90
2023/04/02 00:40:55;;;;;;;;;;;8.90;99.90;9.30;99193.00;;;;346252;28;83320;-90
2023/04/02 00:41:09;;;;;;;;;;;8.90;99.90;9.30;99193.00;;;;344576;28;83221;-89
2023/04/02 00:41:26;;;;;;;;;;;8.90;99.90;9.30;99205.00;;;;343323;28;83631;-90
2023/04/02 00:41:37;;;;;;;;;;;8.90;99.90;9.30;99197.00;;;;345886;28;85718;-90
2023/04/02 00:42:03;;;;;;;;;;;8.90;99.90;9.20;99189.00;;;;341953;28;83610;-89
2023/04/02 00:42:17;;;;;;;;;;;8.90;99.90;9.30;99200.00;;;;346017;28;85304;-90
2023/04/02 00:42:31;;;;;;;;;;;8.90;99.90;9.30;99193.00;;;;343289;28;83391;-89
2023/04/02 00:42:43;;;;;;;;;;;8.90;99.90;9.20;99197.00;;;;346081;28;84272;-90
2023/04/02 00:42:57;;;;;;;;;;;8.90;99.90;9.20;99199.00;;;;345557;28;82661;-90
2023/04/02 00:43:15;;;;;;;;;;;8.90;99.90;9.20;99192.00;;;;341778;28;84205;-89
2023/04/02 00:43:29;;;;;;;;;;;8.90;99.90;9.30;99200.00;;;;343526;28;83293;-90
2023/04/02 00:43:45;;;;;;;;;;;8.90;99.90;9.30;99200.00;;;;344529;28;84254;-89
2023/04/02 00:43:57;;;;;;;;;;;8.90;99.90;9.40;99202.00;;;;344612;28;83477;-90
2023/04/02 00:44:11;;;;;;;;;;;8.90;99.90;9.30;99196.00;;;;344462;28;86395;-90
2023/04/02 00:44:22;;;;;;;;;;;8.90;99.90;9.30;99205.00;;;;343145;28;83633;-90
2023/04/02 00:44:42;;;;;;;;;;;8.90;99.90;9.40;99198.00;;;;343466;28;85038;-90
2023/04/02 00:44:54;;;;;;;;;;;8.90;99.90;9.40;99199.00;;;;343459;28;83397;-90
2023/04/02 00:45:17;;;;;;;;;;;8.90;99.90;9.40;99197.00;;;;344600;28;84687;-90
2023/04/02 00:45:31;;;;;;;;;;;8.90;99.90;9.40;99194.00;;;;343367;28;82698;-90
2023/04/02 00:45:49;;;;;;;;;;;8.90;99.90;9.40;99203.00;;;;341622;28;84152;-90
2023/04/02 00:46:03;;;;;;;;;;;8.90;99.90;9.30;99195.00;;;;342204;28;83332;-90
2023/04/02 00:46:17;;;;;;;;;;;8.90;99.90;9.30;99196.00;;;;343280;28;85021;-90
2023/04/02 00:46:48;;;;;;;;;;;8.90;99.90;9.30;99195.00;;;;344556;28;83394;-90
2023/04/02 00:47:06;;;;;;;;;;;8.90;99.90;9.30;99200.00;;;;341974;28;84116;-89
2023/04/02 00:47:26;;;;;;;;;;;8.90;99.90;9.30;99191.00;;;;343118;28;83614;-89
2023/04/02 00:47:37;;;;;;;;;;;8.90;99.90;9.40;99200.00;;;;347200;28;85650;-90
2023/04/02 00:47:49;;;;;;;;;;;8.90;99.90;9.30;99192.00;;;;344643;28;82490;-89
2023/04/02 00:48:30;;;;;;;;;;;8.90;99.90;9.40;99194.00;;;;340682;28;85443;-90
2023/04/02 00:48:47;;;;;;;;;;;8.90;99.90;9.40;99205.00;;;;346066;28;83403;-89
2023/04/02 00:49:09;;;;;;;;;;;8.90;99.90;9.40;99205.00;;;;344467;28;85421;-89
2023/04/02 00:49:38;;;;;;;;;;;8.90;99.90;9.40;99190.00;;;;345778;28;83394;-90
2023/04/02 00:49:55;;;;;;;;;;;8.90;99.90;9.40;99199.00;;;;344647;28;84035;-90
2023/04/02 00:50:10;;;;;;;;;;;8.90;99.90;9.30;99204.00;;;;344629;28;83446;-90
2023/04/02 00:50:37;;;;;;;;;;;8.90;99.90;9.30;99200.00;;;;344143;28;83155;-89
2023/04/02 00:50:49;;;;;;;;;;;8.90;99.90;9.30;99198.00;;;;343500;28;82465;-90
2023/04/02 00:51:10;;;;;;;;;;;8.90;99.90;9.30;99196.00;;;;343202;28;85483;-89
2023/04/02 00:51:31;;;;;;;;;;;8.90;99.90;9.30;99198.00;;;;342064;28;83405;-90
2023/04/02 00:51:52;;;;;;;;;;;8.90;99.90;9.30;99206.00;;;;341628;28;84716;-90
2023/04/02 00:52:06;;;;;;;;;;;8.90;99.90;9.30;99204.00;;;;346229;28;83303;-90
2023/04/02 00:52:21;;;;;;;;;;;8.90;99.90;9.30;99198.00;;;;344669;28;83803;-90
2023/04/02 00:52:32;;;;;;;;;;;8.90;99.90;9.30;99201.00;;;;344536;28;83519;-90
2023/04/02 00:52:45;;;;;;;;;;;8.90;99.90;9.30;99208.00;;;;344551;28;82995;-90
2023/04/02 00:52:57;;;;;;;;;;;8.90;99.90;9.40;99201.00;;;;346294;28;82352;-91
2023/04/02 00:53:22;;;;;;;;;;;8.90;99.90;9.30;99204.00;;;;343010;28;86520;-90
2023/04/02 00:53:35;;;;;;;;;;;8.90;99.90;9.40;99213.00;;;;344553;28;83559;-91
2023/04/02 00:53:47;;;;;;;;;;;8.90;99.90;9.40;99204.00;;;;345788;28;85272;-90
2023/04/02 00:54:00;;;;;;;;;;;8.90;99.90;9.50;99197.00;;;;343462;28;82250;-90
2023/04/02 00:54:15;;;;;;;;;;;8.90;99.90;9.50;99205.00;;;;342032;28;85465;-90
2023/04/02 00:54:30;;;;;;;;;;;8.90;99.90;9.50;99202.00;;;;343371;28;82497;-90
2023/04/02 00:54:48;;;;;;;;;;;8.90;99.90;9.50;99203.00;;;;344651;28;84880;-90
2023/04/02 00:55:23;;;;;;;;;;;8.90;99.90;9.50;99206.00;;;;346164;28;83102;-89
2023/04/02 00:55:37;;;;;;;;;;;8.90;99.90;9.50;99205.00;;;;344455;28;83975;-90
2023/04/02 00:55:49;;;;;;;;;;;8.90;99.90;9.40;99197.00;;;;340638;28;83541;-90
2023/04/02 00:56:01;;;;;;;;;;;9.00;99.90;9.50;99199.00;;;;342038;28;83908;-90
2023/04/02 00:56:19;;;;;;;;;;;9.00;99.90;9.40;99204.00;;;;344673;28;82454;-90
2023/04/02 00:56:36;;;;;;;;;;;9.00;99.90;9.40;99203.00;;;;344527;28;87052;-90
2023/04/02 00:56:50;;;;;;;;;;;9.00;99.90;9.50;99201.00;;;;345937;28;83400;-90
2023/04/02 00:57:02;;;;;;;;;;;9.00;99.90;9.50;99209.00;;;;344617;28;85436;-90
2023/04/02 00:57:19;;;;;;;;;;;9.00;99.90;9.40;99202.00;;;;344778;28;83254;-90
2023/04/02 00:57:32;;;;;;;;;;;9.00;99.90;9.40;99204.00;;;;345862;28;86592;-90
2023/04/02 00:57:44;;;;;;;;;;;9.00;99.90;9.40;99202.00;;;;343418;28;83295;-90
2023/04/02 00:57:56;;;;;;;;;;;9.00;99.90;9.40;99202.00;;;;340709;28;85001;-90
2023/04/02 00:58:16;;;;;;;;;;;9.00;99.90;9.60;99207.00;;;;346089;28;83398;-90
2023/04/02 00:58:30;;;;;;;;;;;9.00;99.90;9.60;99207.00;;;;344607;28;83829;-90
2023/04/02 00:58:42;;;;;;;;;;;9.00;99.90;9.50;99204.00;;;;344328;28;83385;-90
2023/04/02 00:58:55;;;;;;;;;;;9.00;99.90;9.50;99203.00;;;;343415;28;85295;-90
2023/04/02 00:59:19;;;;;;;;;;;9.00;99.90;9.50;99202.00;;;;344567;28;83548;-90
2023/04/02 00:59:37;;;;;;;;;;;9.00;99.90;9.40;99195.00;;;;344688;28;84320;-90
2023/04/02 00:59:56;;;;;;;;;;;9.00;99.90;9.50;99206.00;;;;341687;28;83623;-90
2023/04/02 01:00:21;;;;;;;;;;;9.00;99.90;9.60;99204.00;;;;343420;28;85040;-91
2023/04/02 01:00:33;;;;;;;;;;;9.10;99.90;9.50;99212.00;;;;344615;28;83530;-90
2023/04/02 01:00:49;;;;;;;;;;;9.00;99.90;9.40;99214.00;;;;344665;28;83779;-90
2023/04/02 01:01:01;;;;;;;;;;;9.00;99.90;9.40;99204.00;;;;344654;28;83370;-90
2023/04/02 01:01:23;;;;;;;;;;;9.00;99.90;9.50;99211.00;;;;341839;28;86500;-90
2023/04/02 01:01:35;;;;;;;;;;;9.00;99.90;9.40;99201.00;;;;344467;28;83560;-90
2023/04/02 01:01:52;;;;;;;;;;;9.00;99.90;9.50;99213.00;;;;343304;28;82193;-90
2023/04/02 01:02:17;;;;;;;;;;;9.00;99.90;9.50;99209.00;;;;343346;28;82429;-90
2023/04/02 01:02:31;;;;;;;;;;;9.00;99.90;9.50;99206.00;;;;344363;28;86555;-90
2023/04/02 01:02:43;;;;;;;;;;;9.10;99.90;9.50;99211.00;;;;346032;28;83833;-90
2023/04/02 01:03:33;;;;;;;;;;;9.00;99.90;9.60;99211.00;;;;346043;28;84122;-89
2023/04/02 01:04:15;;;;;;;;;;;9.10;99.90;9.50;99207.00;;;;346072;28;82521;-89
2023/04/02 01:04:37;;;;;;;;;;;9.10;99.90;9.60;99205.00;;;;343201;28;85153;-90
2023/04/02 01:04:59;;;;;;;;;;;9.10;99.90;9.50;99197.00;;;;343667;28;82354;-90
2023/04/02 01:05:14;;;;;;;;;;;9.10;99.90;9.50;99203.00;;;;346113;28;83945;-90
2023/04/02 01:05:26;;;;;;;;;;;9.10;99.90;9.50;99204.00;;;;346201;28;82439;-90
2023/04/02 01:05:38;;;;;;;;;;;9.10;99.90;9.50;99206.00;;;;345832;28;86410;-90
2023/04/02 01:06:09;;;;;;;;;;;9.10;99.90;9.60;99208.00;;;;345790;28;82464;-90
2023/04/02 01:06:22;;;;;;;;;;;9.10;99.90;9.60;99202.00;;;;344717;28;85258;-90
2023/04/02 01:06:36;;;;;;;;;;;9.10;99.90;9.60;99211.00;;;;341842;28;83581;-90
2023/04/02 01:06:52;;;;;;;;;;;9.10;99.90;9.60;99206.00;;;;345882;28;84758;-90
2023/04/02 01:07:05;;;;;;;;;;;9.10;99.90;9.60;99201.00;;;;344849;28;82464;-90
2023/04/02 01:07:17;;;;;;;;;;;9.10;99.90;9.50;99206.00;;;;344546;28;85770;-90
2023/04/02 01:07:37;;;;;;;;;;;9.10;99.90;9.50;99204.00;;;;343212;28;83381;-90
2023/04/02 01:08:07;;;;;;;;;;;9.10;99.90;9.60;99204.00;;;;344758;28;85116;-91
2023/04/02 01:08:27;;;;;;;;;;;9.20;99.90;9.70;99194.00;;;;344822;28;83323;-90
2023/04/02 01:08:43;;;;;;;;;;;9.20;99.90;9.70;99198.00;;;;344345;28;83970;-90
2023/04/02 01:09:15;;;;;;;;;;;9.20;99.90;9.80;99202.00;;;;344800;28;82487;-90
2023/04/02 01:09:42;;;;;;;;;;;9.20;99.90;9.90;99212.00;;;;344470;28;85297;-90
2023/04/02 01:10:06;;;;;;;;;;;9.20;99.90;9.80;99204.00;;;;343384;28;82568;-90
2023/04/02 01:10:40;;;;;;;;;;;9.30;99.90;9.60;99210.00;;;;342665;28;84338;-89
2023/04/02 01:11:22;;;;;;;;;;;9.30;99.90;9.60;99207.00;;;;343252;28;82412;-90
2023/04/02 01:11:52;;;;;;;;;;;9.30;99.90;9.70;99212.00;;;;341785;28;85447;-89
2023/04/02 01:12:23;;;;;;;;;;;9.30;99.90;9.70;99201.00;;;;343365;28;82603;-90
2023/04/02 01:12:38;;;;;;;;;;;9.20;99.90;9.60;99219.00;;;;338984;28;86104;-91
2023/04/02 01:12:56;;;;;;;;;;;9.30;99.90;9.60;99214.00;;;;339403;28;82470;-90
2023/04/02 01:13:30;;;;;;;;;;;9.20;99.90;9.90;99211.00;;;;340572;28;84408;-90
2023/04/02 01:13:47;;;;;;;;;;;9.30;99.90;9.90;99210.00;;;;343243;28;82457;-90
2023/04/02 01:14:08;;;;;;;;;;;9.30;99.90;9.90;99207.00;;;;340656;28;84071;-91
2023/04/02 01:14:28;;;;;;;;;;;9.30;99.90;9.90;99206.00;;;;340581;28;83479;-90
2023/04/02 01:14:55;;;;;;;;;;;9.30;99.90;9.80;99211.00;;;;338945;28;85282;-90
2023/04/02 01:15:20;;;;;;;;;;;9.30;99.90;9.80;99217.00;;;;340645;28;82410;-90
2023/04/02 01:15:37;;;;;;;;;;;9.40;99.90;9.80;99216.00;;;;339298;28;84506;-91
2023/04/02 01:16:05;;;;;;;;;;;9.30;99.90;9.80;99213.00;;;;337678;28;83487;-91
2023/04/02 01:16:29;;;;;;;;;;;9.30;99.90;9.80;99215.00;;;;340361;28;85321;-90
2023/04/02 01:17:09;;;;;;;;;;;9.30;99.90;9.90;99211.00;;;;339014;28;82680;-90
2023/04/02 01:17:29;;;;;;;;;;;9.40;99.90;9.90;99208.00;;;;338975;28;85453;-90
2023/04/02 01:17:57;;;;;;;;;;;9.40;99.90;9.90;99217.00;;;;339183;28;82617;-90
2023/04/02 01:18:25;;;;;;;;;;;9.40;99.90;9.80;99222.00;;;;340350;28;86538;-90
2023/04/02 01:19:14;;;;;;;;;;;9.40;99.90;9.90;99214.00;;;;341737;28;82576;-90
2023/04/02 01:19:38;;;;;;;;;;;9.40;99.90;9.90;99220.00;;;;337948;28;84343;-91
2023/04/02 01:20:22;;;;;;;;;;;9.40;99.90;9.80;99224.00;;;;336423;28;83737;-91
2023/04/02 01:21:00;;;;;;;;;;;9.40;99.90;9.70;99218.00;;;;337723;28;86389;-91
2023/04/02 01:21:21;;;;;;;;;;;9.40;99.90;9.80;99221.00;;;;337991;28;83361;-90
2023/04/02 01:21:40;;;;;;;;;;;9.40;99.90;9.90;99214.00;;;;337939;28;83615;-90
2023/04/02 01:22:05;;;;;;;;;;;9.40;99.90;9.90;99213.00;;;;338031;28;82594;-90
2023/04/02 01:22:40;;;;;;;;;;;9.40;99.90;9.90;99215.00;;;;339151;28;86162;-90
2023/04/02 01:23:33;;;;;;;;;;;9.40;99.90;9.80;99221.00;;;;339022;28;83583;-90
2023/04/02 01:23:54;;;;;;;;;;;9.40;99.90;10.00;99221.00;;;;337559;28;86611;-90
2023/04/02 01:24:10;;;;;;;;;;;9.40;99.90;10.00;99210.00;;;;336705;28;83387;-90
2023/04/02 01:24:25;;;;;;;;;;;9.50;99.90;10.10;99209.00;;;;337847;28;85218;-90
2023/04/02 01:24:37;;;;;;;;;;;9.50;99.90;10.10;99210.00;;;;337827;28;83545;-90
2023/04/02 01:24:49;;;;;;;;;;;9.50;99.90;10.10;99217.00;;;;337804;28;85505;-90
2023/04/02 01:25:03;;;;;;;;;;;9.50;99.90;10.00;99218.00;;;;339059;28;82667;-90
2023/04/02 01:25:22;;;;;;;;;;;9.50;99.90;9.90;99213.00;;;;337882;28;84473;-90
2023/04/02 01:25:41;;;;;;;;;;;9.50;99.90;9.90;99218.00;;;;337802;28;83733;-90
2023/04/02 01:26:09;;;;;;;;;;;9.50;99.90;9.90;99219.00;;;;336609;28;83651;-90
2023/04/02 01:26:24;;;;;;;;;;;9.50;99.90;9.80;99219.00;;;;337583;28;83503;-90
2023/04/02 01:27:21;;;;;;;;;;;9.50;99.90;9.90;99229.00;;;;337802;28;85150;-90
2023/04/02 01:27:44;;;;;;;;;;;9.50;99.90;10.00;99220.00;;;;336571;28;83453;-90
2023/04/02 01:28:04;;;;;;;;;;;9.50;99.90;9.90;99224.00;;;;336413;28;87951;-90
2023/04/02 01:28:30;;;;;;;;;;;9.50;99.90;10.00;99216.00;;;;338048;28;82473;-90
2023/04/02 01:29:14;;;;;;;;;;;9.50;99.90;10.00;99224.00;;;;339126;28;85509;-90
2023/04/02 01:29:32;;;;;;;;;;;9.50;99.90;9.90;99227.00;;;;337926;28;83610;-90
2023/04/02 01:29:48;;;;;;;;;;;9.50;99.90;9.90;99220.00;;;;336268;28;86420;-91
2023/04/02 01:30:00;;;;;;;;;;;9.50;99.90;9.90;99223.00;;;;335337;29;83401;-90
2023/04/02 01:30:13;;;;;;;;;;;9.50;99.90;9.90;99219.00;;;;336614;28;83754;-90
2023/04/02 01:30:25;;;;;;;;;;;9.50;99.90;9.90;99221.00;;;;337972;28;83405;-90
2023/04/02 01:30:36;;;;;;;;;;;9.50;99.90;9.90;99219.00;;;;337976;28;84958;-91
2023/04/02 01:30:51;;;;;;;;;;;9.50;99.90;9.90;99220.00;;;;337981;28;82295;-90
2023/04/02 01:31:03;;;;;;;;;;;9.50;99.90;9.90;99217.00;;;;337571;28;87301;-90
2023/04/02 01:31:15;;;;;;;;;;;9.50;99.90;9.90;99226.00;;;;339050;28;83668;-91
2023/04/02 01:31:27;;;;;;;;;;;9.50;99.90;9.90;99216.00;;;;336456;28;85010;-90
2023/04/02 01:31:39;;;;;;;;;;;9.50;99.90;9.90;99223.00;;;;339022;28;83583;-90
2023/04/02 01:31:52;;;;;;;;;;;9.60;99.90;9.90;99219.00;;;;339272;28;83581;-90
2023/04/02 01:32:09;;;;;;;;;;;9.50;99.90;9.90;99221.00;;;;337872;28;83542;-91